sensor_id;sensor_type;location;lat;lon;timestamp;P1;durP1;ratioP1;P2;durP2;ratioP2
33654;SDS011;19997;51.274;22.506;2022-12-07T00:01:15;61.53;;;18.80;;
33654;SDS011;19997;51.274;22.506;2022-12-07T00:03:44;45.35;;;15.60;;
33654;SDS011;19997;51.274;22.506;2022-12-07T00:06:13;55.53;;;18.05;;
33654;SDS011;19997;51.274;22.506;2022-12-07T00:08:42;49.55;;;17.67;;
33654;SDS011;19997;51.274;22.506;2022-12-07T00:11:10;49.72;;;17.02;;
33654;SDS011;19997;51.274;22.506;2022-12-07T00:13:38;56.53;;;19.13;;
33654;SDS011;19997;51.274;22.506;2022-12-07T00:16:08;53.58;;;17.92;;
33654;SDS011;19997;51.274;22.506;2022-12-07T00:18:37;56.08;;;17.80;;
33654;SDS011;19997;51.274;22.506;2022-12-07T00:21:05;46.35;;;17.73;;
33654;SDS011;19997;51.274;22.506;2022-12-07T00:23:33;48.38;;;17.25;;
33654;SDS011;19997;51.274;22.506;2022-12-07T00:26:04;49.63;;;18.15;;
33654;SDS011;19997;51.274;22.506;2022-12-07T00:28:32;56.58;;;19.42;;
33654;SDS011;19997;51.274;22.506;2022-12-07T00:31:00;57.08;;;19.60;;
33654;SDS011;19997;51.274;22.506;2022-12-07T00:33:30;57.03;;;20.05;;
33654;SDS011;19997;51.274;22.506;2022-12-07T00:35:57;50.55;;;18.35;;
33654;SDS011;19997;51.274;22.506;2022-12-07T00:38:26;48.00;;;17.50;;
33654;SDS011;19997;51.274;22.506;2022-12-07T00:40:55;49.25;;;17.48;;
33654;SDS011;19997;51.274;22.506;2022-12-07T00:43:23;53.45;;;17.15;;
33654;SDS011;19997;51.274;22.506;2022-12-07T00:45:50;50.85;;;18.20;;
33654;SDS011;19997;51.274;22.506;2022-12-07T00:48:17;53.72;;;17.35;;
33654;SDS011;19997;51.274;22.506;2022-12-07T00:50:46;47.92;;;18.13;;
33654;SDS011;19997;51.274;22.506;2022-12-07T00:53:14;50.70;;;18.23;;
33654;SDS011;19997;51.274;22.506;2022-12-07T00:55:41;46.05;;;17.52;;
33654;SDS011;19997;51.274;22.506;2022-12-07T00:58:08;48.75;;;17.73;;
33654;SDS011;19997;51.274;22.506;2022-12-07T01:00:36;48.60;;;17.23;;
33654;SDS011;19997;51.274;22.506;2022-12-07T01:03:04;45.50;;;16.25;;
33654;SDS011;19997;51.274;22.506;2022-12-07T01:05:31;38.80;;;15.48;;
33654;SDS011;19997;51.274;22.506;2022-12-07T01:08:00;41.97;;;15.20;;
33654;SDS011;19997;51.274;22.506;2022-12-07T01:10:27;39.38;;;14.98;;
33654;SDS011;19997;51.274;22.506;2022-12-07T01:12:55;40.25;;;14.80;;
33654;SDS011;19997;51.274;22.506;2022-12-07T01:15:22;46.75;;;17.15;;
33654;SDS011;19997;51.274;22.506;2022-12-07T01:17:49;39.45;;;15.88;;
33654;SDS011;19997;51.274;22.506;2022-12-07T01:20:17;43.55;;;15.98;;
33654;SDS011;19997;51.274;22.506;2022-12-07T01:22:44;43.95;;;16.90;;
33654;SDS011;19997;51.274;22.506;2022-12-07T01:25:12;40.28;;;16.48;;
33654;SDS011;19997;51.274;22.506;2022-12-07T01:27:39;40.53;;;16.23;;
33654;SDS011;19997;51.274;22.506;2022-12-07T01:30:07;37.97;;;15.85;;
33654;SDS011;19997;51.274;22.506;2022-12-07T01:32:36;40.40;;;18.15;;
33654;SDS011;19997;51.274;22.506;2022-12-07T01:35:03;41.13;;;15.15;;
33654;SDS011;19997;51.274;22.506;2022-12-07T01:37:33;35.70;;;14.73;;
33654;SDS011;19997;51.274;22.506;2022-12-07T01:40:01;42.03;;;15.60;;
33654;SDS011;19997;51.274;22.506;2022-12-07T01:42:30;36.20;;;15.20;;
33654;SDS011;19997;51.274;22.506;2022-12-07T01:48:00;40.65;;;16.55;;
33654;SDS011;19997;51.274;22.506;2022-12-07T01:50:28;35.28;;;14.52;;
33654;SDS011;19997;51.274;22.506;2022-12-07T01:52:57;45.60;;;17.73;;
33654;SDS011;19997;51.274;22.506;2022-12-07T01:55:26;39.83;;;16.40;;
33654;SDS011;19997;51.274;22.506;2022-12-07T01:57:54;35.53;;;14.73;;
33654;SDS011;19997;51.274;22.506;2022-12-07T02:00:23;34.95;;;15.38;;
33654;SDS011;19997;51.274;22.506;2022-12-07T02:02:51;29.45;;;13.90;;
33654;SDS011;19997;51.274;22.506;2022-12-07T02:05:22;31.88;;;13.20;;
33654;SDS011;19997;51.274;22.506;2022-12-07T02:07:51;32.97;;;13.65;;
33654;SDS011;19997;51.274;22.506;2022-12-07T02:10:21;24.25;;;11.25;;
33654;SDS011;19997;51.274;22.506;2022-12-07T02:12:50;23.15;;;10.60;;
33654;SDS011;19997;51.274;22.506;2022-12-07T02:15:22;21.42;;;10.07;;
33654;SDS011;19997;51.274;22.506;2022-12-07T02:17:55;17.48;;;9.00;;
33654;SDS011;19997;51.274;22.506;2022-12-07T02:20:28;17.70;;;8.95;;
33654;SDS011;19997;51.274;22.506;2022-12-07T02:26:02;14.98;;;7.78;;
33654;SDS011;19997;51.274;22.506;2022-12-07T02:28:59;15.38;;;7.40;;
33654;SDS011;19997;51.274;22.506;2022-12-07T02:31:38;13.32;;;7.07;;
33654;SDS011;19997;51.274;22.506;2022-12-07T02:34:15;16.55;;;8.48;;
33654;SDS011;19997;51.274;22.506;2022-12-07T02:36:50;12.23;;;6.38;;
33654;SDS011;19997;51.274;22.506;2022-12-07T02:39:23;14.77;;;7.35;;
33654;SDS011;19997;51.274;22.506;2022-12-07T02:41:57;13.63;;;7.00;;
33654;SDS011;19997;51.274;22.506;2022-12-07T02:44:30;13.38;;;7.35;;
33654;SDS011;19997;51.274;22.506;2022-12-07T02:46:59;17.35;;;8.60;;
33654;SDS011;19997;51.274;22.506;2022-12-07T02:49:29;17.33;;;8.57;;
33654;SDS011;19997;51.274;22.506;2022-12-07T02:51:58;13.25;;;6.80;;
33654;SDS011;19997;51.274;22.506;2022-12-07T02:54:25;19.02;;;7.93;;
33654;SDS011;19997;51.274;22.506;2022-12-07T02:56:53;17.30;;;7.05;;
33654;SDS011;19997;51.274;22.506;2022-12-07T02:59:29;11.88;;;6.70;;
33654;SDS011;19997;51.274;22.506;2022-12-07T03:02:10;15.80;;;5.90;;
33654;SDS011;19997;51.274;22.506;2022-12-07T03:04:46;11.82;;;5.57;;
33654;SDS011;19997;51.274;22.506;2022-12-07T03:07:24;9.10;;;5.25;;
33654;SDS011;19997;51.274;22.506;2022-12-07T03:10:00;9.95;;;4.50;;
33654;SDS011;19997;51.274;22.506;2022-12-07T03:12:35;7.57;;;4.00;;
33654;SDS011;19997;51.274;22.506;2022-12-07T03:15:12;8.13;;;4.47;;
33654;SDS011;19997;51.274;22.506;2022-12-07T03:17:44;9.20;;;4.20;;
33654;SDS011;19997;51.274;22.506;2022-12-07T03:20:15;6.07;;;3.95;;
33654;SDS011;19997;51.274;22.506;2022-12-07T03:22:45;8.10;;;3.70;;
33654;SDS011;19997;51.274;22.506;2022-12-07T03:25:14;7.95;;;2.83;;
33654;SDS011;19997;51.274;22.506;2022-12-07T03:27:45;8.05;;;3.70;;
33654;SDS011;19997;51.274;22.506;2022-12-07T03:30:20;8.02;;;4.05;;
33654;SDS011;19997;51.274;22.506;2022-12-07T03:32:49;5.00;;;2.88;;
33654;SDS011;19997;51.274;22.506;2022-12-07T03:35:22;8.93;;;4.22;;
33654;SDS011;19997;51.274;22.506;2022-12-07T03:37:53;9.15;;;3.67;;
33654;SDS011;19997;51.274;22.506;2022-12-07T03:40:26;7.47;;;3.53;;
33654;SDS011;19997;51.274;22.506;2022-12-07T03:42:56;6.47;;;3.72;;
33654;SDS011;19997;51.274;22.506;2022-12-07T03:45:30;9.63;;;4.90;;
33654;SDS011;19997;51.274;22.506;2022-12-07T03:48:03;6.72;;;3.72;;
33654;SDS011;19997;51.274;22.506;2022-12-07T03:50:37;8.77;;;4.68;;
33654;SDS011;19997;51.274;22.506;2022-12-07T03:53:09;8.07;;;4.13;;
33654;SDS011;19997;51.274;22.506;2022-12-07T03:55:42;10.45;;;4.07;;
33654;SDS011;19997;51.274;22.506;2022-12-07T03:58:11;8.13;;;3.93;;
33654;SDS011;19997;51.274;22.506;2022-12-07T04:00:43;10.18;;;3.85;;
33654;SDS011;19997;51.274;22.506;2022-12-07T04:03:10;9.23;;;4.75;;
33654;SDS011;19997;51.274;22.506;2022-12-07T04:05:38;8.98;;;4.43;;
33654;SDS011;19997;51.274;22.506;2022-12-07T04:08:05;8.30;;;3.85;;
33654;SDS011;19997;51.274;22.506;2022-12-07T04:10:33;6.57;;;3.38;;
33654;SDS011;19997;51.274;22.506;2022-12-07T04:13:00;5.38;;;3.38;;
33654;SDS011;19997;51.274;22.506;2022-12-07T04:15:27;5.80;;;3.45;;
33654;SDS011;19997;51.274;22.506;2022-12-07T04:17:55;7.88;;;3.75;;
33654;SDS011;19997;51.274;22.506;2022-12-07T04:20:22;7.28;;;3.45;;
33654;SDS011;19997;51.274;22.506;2022-12-07T04:22:50;9.02;;;3.90;;
33654;SDS011;19997;51.274;22.506;2022-12-07T04:25:17;8.05;;;3.97;;
33654;SDS011;19997;51.274;22.506;2022-12-07T04:27:44;8.50;;;4.22;;
33654;SDS011;19997;51.274;22.506;2022-12-07T04:30:11;8.07;;;3.78;;
33654;SDS011;19997;51.274;22.506;2022-12-07T04:32:38;10.23;;;4.50;;
33654;SDS011;19997;51.274;22.506;2022-12-07T04:35:07;12.00;;;5.13;;
33654;SDS011;19997;51.274;22.506;2022-12-07T04:37:34;7.93;;;4.40;;
33654;SDS011;19997;51.274;22.506;2022-12-07T04:40:05;9.32;;;4.90;;
33654;SDS011;19997;51.274;22.506;2022-12-07T04:42:33;12.43;;;5.13;;
33654;SDS011;19997;51.274;22.506;2022-12-07T04:45:00;11.05;;;4.88;;
33654;SDS011;19997;51.274;22.506;2022-12-07T04:47:27;9.20;;;4.53;;
33654;SDS011;19997;51.274;22.506;2022-12-07T04:49:55;9.98;;;5.00;;
33654;SDS011;19997;51.274;22.506;2022-12-07T04:52:23;10.20;;;5.00;;
33654;SDS011;19997;51.274;22.506;2022-12-07T04:54:50;10.50;;;4.95;;
33654;SDS011;19997;51.274;22.506;2022-12-07T04:57:17;10.73;;;5.38;;
33654;SDS011;19997;51.274;22.506;2022-12-07T04:59:44;12.60;;;6.40;;
33654;SDS011;19997;51.274;22.506;2022-12-07T05:02:11;11.07;;;6.68;;
33654;SDS011;19997;51.274;22.506;2022-12-07T05:04:38;9.13;;;5.07;;
33654;SDS011;19997;51.274;22.506;2022-12-07T05:07:05;12.07;;;5.35;;
33654;SDS011;19997;51.274;22.506;2022-12-07T05:09:34;16.08;;;5.40;;
33654;SDS011;19997;51.274;22.506;2022-12-07T05:12:01;9.45;;;4.68;;
33654;SDS011;19997;51.274;22.506;2022-12-07T05:14:28;10.18;;;5.18;;
33654;SDS011;19997;51.274;22.506;2022-12-07T05:16:55;9.82;;;4.90;;
33654;SDS011;19997;51.274;22.506;2022-12-07T05:19:22;10.27;;;5.20;;
33654;SDS011;19997;51.274;22.506;2022-12-07T05:21:49;9.35;;;5.30;;
33654;SDS011;19997;51.274;22.506;2022-12-07T05:24:16;12.18;;;5.20;;
33654;SDS011;19997;51.274;22.506;2022-12-07T05:26:45;13.70;;;6.30;;
33654;SDS011;19997;51.274;22.506;2022-12-07T05:29:12;13.32;;;6.05;;
33654;SDS011;19997;51.274;22.506;2022-12-07T05:31:43;11.32;;;5.53;;
33654;SDS011;19997;51.274;22.506;2022-12-07T05:34:11;11.40;;;5.82;;
33654;SDS011;19997;51.274;22.506;2022-12-07T05:36:38;13.63;;;5.70;;
33654;SDS011;19997;51.274;22.506;2022-12-07T05:39:05;10.93;;;5.53;;
33654;SDS011;19997;51.274;22.506;2022-12-07T05:41:33;10.80;;;5.68;;
33654;SDS011;19997;51.274;22.506;2022-12-07T05:44:19;15.52;;;6.28;;
33654;SDS011;19997;51.274;22.506;2022-12-07T05:46:46;21.95;;;11.77;;
33654;SDS011;19997;51.274;22.506;2022-12-07T05:49:13;17.83;;;8.60;;
33654;SDS011;19997;51.274;22.506;2022-12-07T05:51:40;16.33;;;7.95;;
33654;SDS011;19997;51.274;22.506;2022-12-07T05:54:08;13.95;;;7.75;;
33654;SDS011;19997;51.274;22.506;2022-12-07T05:56:35;16.02;;;7.65;;
33654;SDS011;19997;51.274;22.506;2022-12-07T05:59:03;17.73;;;8.52;;
33654;SDS011;19997;51.274;22.506;2022-12-07T06:01:50;22.95;;;8.52;;
33654;SDS011;19997;51.274;22.506;2022-12-07T06:04:18;16.03;;;7.20;;
33654;SDS011;19997;51.274;22.506;2022-12-07T06:06:46;20.85;;;10.35;;
33654;SDS011;19997;51.274;22.506;2022-12-07T06:09:13;28.17;;;11.15;;
33654;SDS011;19997;51.274;22.506;2022-12-07T06:11:40;25.83;;;11.55;;
33654;SDS011;19997;51.274;22.506;2022-12-07T06:14:25;20.17;;;9.25;;
33654;SDS011;19997;51.274;22.506;2022-12-07T06:16:54;19.85;;;9.77;;
33654;SDS011;19997;51.274;22.506;2022-12-07T06:19:21;75.82;;;25.70;;
33654;SDS011;19997;51.274;22.506;2022-12-07T06:21:48;23.20;;;11.15;;
33654;SDS011;19997;51.274;22.506;2022-12-07T06:24:16;20.08;;;8.13;;
33654;SDS011;19997;51.274;22.506;2022-12-07T06:27:06;15.20;;;7.10;;
33654;SDS011;19997;51.274;22.506;2022-12-07T06:29:33;11.10;;;6.05;;
33654;SDS011;19997;51.274;22.506;2022-12-07T06:32:03;11.45;;;5.80;;
33654;SDS011;19997;51.274;22.506;2022-12-07T06:34:31;13.02;;;6.70;;
33654;SDS011;19997;51.274;22.506;2022-12-07T06:36:59;9.52;;;5.65;;
33654;SDS011;19997;51.274;22.506;2022-12-07T06:39:27;9.57;;;5.75;;
33654;SDS011;19997;51.274;22.506;2022-12-07T06:41:55;10.45;;;6.00;;
33654;SDS011;19997;51.274;22.506;2022-12-07T06:44:22;11.40;;;4.95;;
33654;SDS011;19997;51.274;22.506;2022-12-07T06:46:50;9.75;;;4.63;;
33654;SDS011;19997;51.274;22.506;2022-12-07T06:49:19;10.57;;;4.20;;
33654;SDS011;19997;51.274;22.506;2022-12-07T06:51:46;9.57;;;4.78;;
33654;SDS011;19997;51.274;22.506;2022-12-07T06:54:14;8.63;;;4.40;;
33654;SDS011;19997;51.274;22.506;2022-12-07T06:56:42;8.45;;;4.28;;
33654;SDS011;19997;51.274;22.506;2022-12-07T06:59:09;8.32;;;4.57;;
33654;SDS011;19997;51.274;22.506;2022-12-07T07:01:37;12.18;;;4.47;;
33654;SDS011;19997;51.274;22.506;2022-12-07T07:04:04;8.82;;;4.90;;
33654;SDS011;19997;51.274;22.506;2022-12-07T07:06:33;9.55;;;4.05;;
33654;SDS011;19997;51.274;22.506;2022-12-07T07:09:00;10.55;;;5.03;;
33654;SDS011;19997;51.274;22.506;2022-12-07T07:11:27;8.40;;;4.57;;
33654;SDS011;19997;51.274;22.506;2022-12-07T07:13:54;13.52;;;4.97;;
33654;SDS011;19997;51.274;22.506;2022-12-07T07:16:27;7.38;;;4.25;;
33654;SDS011;19997;51.274;22.506;2022-12-07T07:18:55;10.05;;;4.68;;
33654;SDS011;19997;51.274;22.506;2022-12-07T07:21:22;16.15;;;6.47;;
33654;SDS011;19997;51.274;22.506;2022-12-07T07:23:50;12.40;;;4.95;;
33654;SDS011;19997;51.274;22.506;2022-12-07T07:26:18;12.63;;;5.32;;
33654;SDS011;19997;51.274;22.506;2022-12-07T07:28:45;7.47;;;4.45;;
33654;SDS011;19997;51.274;22.506;2022-12-07T07:31:12;11.93;;;5.72;;
33654;SDS011;19997;51.274;22.506;2022-12-07T07:33:40;7.50;;;4.18;;
33654;SDS011;19997;51.274;22.506;2022-12-07T07:36:07;9.27;;;5.18;;
33654;SDS011;19997;51.274;22.506;2022-12-07T07:38:34;11.18;;;5.20;;
33654;SDS011;19997;51.274;22.506;2022-12-07T07:41:03;10.40;;;5.28;;
33654;SDS011;19997;51.274;22.506;2022-12-07T07:43:30;8.57;;;4.30;;
33654;SDS011;19997;51.274;22.506;2022-12-07T07:46:00;10.50;;;4.40;;
33654;SDS011;19997;51.274;22.506;2022-12-07T07:48:27;10.27;;;5.43;;
33654;SDS011;19997;51.274;22.506;2022-12-07T07:50:54;9.38;;;4.50;;
33654;SDS011;19997;51.274;22.506;2022-12-07T07:53:21;10.75;;;4.50;;
33654;SDS011;19997;51.274;22.506;2022-12-07T07:55:51;9.15;;;5.60;;
33654;SDS011;19997;51.274;22.506;2022-12-07T07:58:21;11.10;;;5.15;;
33654;SDS011;19997;51.274;22.506;2022-12-07T08:00:48;9.80;;;5.13;;
33654;SDS011;19997;51.274;22.506;2022-12-07T08:03:15;15.50;;;6.60;;
33654;SDS011;19997;51.274;22.506;2022-12-07T08:05:42;10.73;;;5.25;;
33654;SDS011;19997;51.274;22.506;2022-12-07T08:08:09;14.32;;;5.55;;
33654;SDS011;19997;51.274;22.506;2022-12-07T08:10:36;12.35;;;4.95;;
33654;SDS011;19997;51.274;22.506;2022-12-07T08:13:03;14.95;;;6.47;;
33654;SDS011;19997;51.274;22.506;2022-12-07T08:15:42;15.77;;;6.55;;
33654;SDS011;19997;51.274;22.506;2022-12-07T08:18:10;14.82;;;6.30;;
33654;SDS011;19997;51.274;22.506;2022-12-07T08:20:38;15.25;;;6.63;;
33654;SDS011;19997;51.274;22.506;2022-12-07T08:23:06;15.68;;;5.43;;
33654;SDS011;19997;51.274;22.506;2022-12-07T08:25:35;7.57;;;4.93;;
33654;SDS011;19997;51.274;22.506;2022-12-07T08:28:02;14.50;;;7.20;;
33654;SDS011;19997;51.274;22.506;2022-12-07T08:30:30;11.35;;;5.50;;
33654;SDS011;19997;51.274;22.506;2022-12-07T08:32:58;10.18;;;4.88;;
33654;SDS011;19997;51.274;22.506;2022-12-07T08:35:25;16.98;;;7.40;;
33654;SDS011;19997;51.274;22.506;2022-12-07T08:37:52;9.80;;;5.28;;
33654;SDS011;19997;51.274;22.506;2022-12-07T08:40:19;11.13;;;5.97;;
33654;SDS011;19997;51.274;22.506;2022-12-07T08:42:48;12.00;;;5.97;;
33654;SDS011;19997;51.274;22.506;2022-12-07T08:45:16;11.98;;;5.90;;
33654;SDS011;19997;51.274;22.506;2022-12-07T08:47:45;12.90;;;6.30;;
33654;SDS011;19997;51.274;22.506;2022-12-07T08:50:16;17.20;;;7.25;;
33654;SDS011;19997;51.274;22.506;2022-12-07T08:52:43;14.45;;;6.63;;
33654;SDS011;19997;51.274;22.506;2022-12-07T08:55:13;11.38;;;6.22;;
33654;SDS011;19997;51.274;22.506;2022-12-07T08:57:40;15.50;;;7.03;;
33654;SDS011;19997;51.274;22.506;2022-12-07T09:00:08;14.57;;;6.90;;
33654;SDS011;19997;51.274;22.506;2022-12-07T09:02:36;15.80;;;6.82;;
33654;SDS011;19997;51.274;22.506;2022-12-07T09:05:03;15.27;;;6.60;;
33654;SDS011;19997;51.274;22.506;2022-12-07T09:07:32;15.93;;;8.27;;
33654;SDS011;19997;51.274;22.506;2022-12-07T09:10:00;16.83;;;8.40;;
33654;SDS011;19997;51.274;22.506;2022-12-07T09:12:28;17.02;;;8.60;;
33654;SDS011;19997;51.274;22.506;2022-12-07T09:14:55;18.02;;;8.07;;
33654;SDS011;19997;51.274;22.506;2022-12-07T09:17:22;15.38;;;7.18;;
33654;SDS011;19997;51.274;22.506;2022-12-07T09:19:49;19.48;;;8.75;;
33654;SDS011;19997;51.274;22.506;2022-12-07T09:22:17;18.58;;;7.65;;
33654;SDS011;19997;51.274;22.506;2022-12-07T09:24:45;18.25;;;8.35;;
33654;SDS011;19997;51.274;22.506;2022-12-07T09:27:12;21.60;;;8.75;;
33654;SDS011;19997;51.274;22.506;2022-12-07T09:29:42;23.73;;;10.48;;
33654;SDS011;19997;51.274;22.506;2022-12-07T09:32:09;19.52;;;8.73;;
33654;SDS011;19997;51.274;22.506;2022-12-07T09:34:36;21.10;;;7.97;;
33654;SDS011;19997;51.274;22.506;2022-12-07T09:37:03;13.73;;;6.88;;
33654;SDS011;19997;51.274;22.506;2022-12-07T09:39:31;13.68;;;6.53;;
33654;SDS011;19997;51.274;22.506;2022-12-07T09:42:03;12.65;;;6.53;;
33654;SDS011;19997;51.274;22.506;2022-12-07T09:44:30;19.48;;;8.18;;
33654;SDS011;19997;51.274;22.506;2022-12-07T09:46:58;20.42;;;8.70;;
33654;SDS011;19997;51.274;22.506;2022-12-07T09:49:27;21.40;;;8.27;;
33654;SDS011;19997;51.274;22.506;2022-12-07T09:52:00;23.00;;;8.05;;
33654;SDS011;19997;51.274;22.506;2022-12-07T09:54:29;23.63;;;9.95;;
33654;SDS011;19997;51.274;22.506;2022-12-07T09:56:57;22.63;;;8.77;;
33654;SDS011;19997;51.274;22.506;2022-12-07T09:59:26;30.35;;;10.50;;
33654;SDS011;19997;51.274;22.506;2022-12-07T10:01:53;24.60;;;9.57;;
33654;SDS011;19997;51.274;22.506;2022-12-07T10:04:20;27.63;;;10.90;;
33654;SDS011;19997;51.274;22.506;2022-12-07T10:06:50;29.77;;;10.13;;
33654;SDS011;19997;51.274;22.506;2022-12-07T10:09:17;32.42;;;10.93;;
33654;SDS011;19997;51.274;22.506;2022-12-07T10:12:00;24.58;;;10.05;;
33654;SDS011;19997;51.274;22.506;2022-12-07T10:14:28;21.10;;;7.20;;
33654;SDS011;19997;51.274;22.506;2022-12-07T10:16:57;22.80;;;8.75;;
33654;SDS011;19997;51.274;22.506;2022-12-07T10:19:25;37.83;;;12.80;;
33654;SDS011;19997;51.274;22.506;2022-12-07T10:22:00;22.55;;;9.32;;
33654;SDS011;19997;51.274;22.506;2022-12-07T10:24:30;24.08;;;10.02;;
33654;SDS011;19997;51.274;22.506;2022-12-07T10:26:57;34.33;;;11.25;;
33654;SDS011;19997;51.274;22.506;2022-12-07T10:29:28;23.42;;;8.70;;
33654;SDS011;19997;51.274;22.506;2022-12-07T10:31:57;32.85;;;9.65;;
33654;SDS011;19997;51.274;22.506;2022-12-07T10:34:27;15.68;;;7.93;;
33654;SDS011;19997;51.274;22.506;2022-12-07T10:37:06;23.98;;;8.68;;
33654;SDS011;19997;51.274;22.506;2022-12-07T10:39:41;21.23;;;7.22;;
33654;SDS011;19997;51.274;22.506;2022-12-07T10:42:17;14.90;;;7.15;;
33654;SDS011;19997;51.274;22.506;2022-12-07T10:44:45;17.90;;;7.45;;
33654;SDS011;19997;51.274;22.506;2022-12-07T10:47:20;21.70;;;8.23;;
33654;SDS011;19997;51.274;22.506;2022-12-07T10:53:08;16.85;;;7.82;;
33654;SDS011;19997;51.274;22.506;2022-12-07T10:56:05;19.35;;;8.48;;
33654;SDS011;19997;51.274;22.506;2022-12-07T10:58:55;16.15;;;6.75;;
33654;SDS011;19997;51.274;22.506;2022-12-07T11:01:31;18.88;;;7.18;;
33654;SDS011;19997;51.274;22.506;2022-12-07T11:04:10;21.73;;;9.25;;
33654;SDS011;19997;51.274;22.506;2022-12-07T11:06:47;16.88;;;8.32;;
33654;SDS011;19997;51.274;22.506;2022-12-07T11:09:28;20.45;;;9.15;;
33654;SDS011;19997;51.274;22.506;2022-12-07T11:12:19;21.13;;;9.30;;
33654;SDS011;19997;51.274;22.506;2022-12-07T11:14:58;22.37;;;9.23;;
33654;SDS011;19997;51.274;22.506;2022-12-07T11:17:32;26.13;;;12.23;;
33654;SDS011;19997;51.274;22.506;2022-12-07T11:20:12;15.80;;;7.68;;
33654;SDS011;19997;51.274;22.506;2022-12-07T11:22:51;15.48;;;7.40;;
33654;SDS011;19997;51.274;22.506;2022-12-07T11:25:29;23.23;;;8.85;;
33654;SDS011;19997;51.274;22.506;2022-12-07T11:28:04;18.05;;;8.18;;
33654;SDS011;19997;51.274;22.506;2022-12-07T11:30:47;17.67;;;7.95;;
33654;SDS011;19997;51.274;22.506;2022-12-07T11:33:22;15.27;;;7.63;;
33654;SDS011;19997;51.274;22.506;2022-12-07T11:36:02;15.18;;;7.40;;
33654;SDS011;19997;51.274;22.506;2022-12-07T11:38:37;18.40;;;8.93;;
33654;SDS011;19997;51.274;22.506;2022-12-07T11:41:10;17.73;;;7.20;;
33654;SDS011;19997;51.274;22.506;2022-12-07T11:43:42;14.80;;;7.70;;
33654;SDS011;19997;51.274;22.506;2022-12-07T11:46:24;15.25;;;8.07;;
33654;SDS011;19997;51.274;22.506;2022-12-07T11:48:55;21.67;;;9.38;;
33654;SDS011;19997;51.274;22.506;2022-12-07T11:51:28;18.17;;;8.98;;
33654;SDS011;19997;51.274;22.506;2022-12-07T11:54:01;18.15;;;9.38;;
33654;SDS011;19997;51.274;22.506;2022-12-07T11:56:29;23.35;;;11.68;;
33654;SDS011;19997;51.274;22.506;2022-12-07T11:59:02;20.38;;;8.90;;
33654;SDS011;19997;51.274;22.506;2022-12-07T12:01:44;21.30;;;9.35;;
33654;SDS011;19997;51.274;22.506;2022-12-07T12:09:41;17.40;;;6.90;;
33654;SDS011;19997;51.274;22.506;2022-12-07T12:15:16;15.88;;;8.77;;
33654;SDS011;19997;51.274;22.506;2022-12-07T12:20:55;16.85;;;7.68;;
33654;SDS011;19997;51.274;22.506;2022-12-07T12:23:26;20.73;;;7.95;;
33654;SDS011;19997;51.274;22.506;2022-12-07T12:26:02;14.00;;;7.47;;
33654;SDS011;19997;51.274;22.506;2022-12-07T12:28:32;17.25;;;7.20;;
33654;SDS011;19997;51.274;22.506;2022-12-07T12:31:06;16.30;;;7.95;;
33654;SDS011;19997;51.274;22.506;2022-12-07T12:33:38;16.13;;;8.05;;
33654;SDS011;19997;51.274;22.506;2022-12-07T12:36:20;18.45;;;8.15;;
33654;SDS011;19997;51.274;22.506;2022-12-07T12:39:07;17.38;;;8.57;;
33654;SDS011;19997;51.274;22.506;2022-12-07T12:41:55;16.60;;;7.88;;
33654;SDS011;19997;51.274;22.506;2022-12-07T12:44:41;14.93;;;7.40;;
33654;SDS011;19997;51.274;22.506;2022-12-07T12:47:40;15.18;;;7.53;;
33654;SDS011;19997;51.274;22.506;2022-12-07T12:50:31;15.55;;;7.68;;
33654;SDS011;19997;51.274;22.506;2022-12-07T12:58:50;15.77;;;7.47;;
33654;SDS011;19997;51.274;22.506;2022-12-07T13:01:53;18.08;;;7.82;;
33654;SDS011;19997;51.274;22.506;2022-12-07T13:04:29;18.40;;;8.63;;
33654;SDS011;19997;51.274;22.506;2022-12-07T13:10:37;22.88;;;8.40;;
33654;SDS011;19997;51.274;22.506;2022-12-07T13:25:05;14.85;;;7.45;;
33654;SDS011;19997;51.274;22.506;2022-12-07T13:27:37;14.48;;;7.05;;
33654;SDS011;19997;51.274;22.506;2022-12-07T13:30:09;16.27;;;7.80;;
33654;SDS011;19997;51.274;22.506;2022-12-07T13:32:42;17.15;;;6.90;;
33654;SDS011;19997;51.274;22.506;2022-12-07T13:35:30;16.13;;;7.57;;
33654;SDS011;19997;51.274;22.506;2022-12-07T13:37:59;26.05;;;11.00;;
33654;SDS011;19997;51.274;22.506;2022-12-07T13:40:30;15.43;;;7.60;;
33654;SDS011;19997;51.274;22.506;2022-12-07T13:42:59;18.20;;;7.30;;
33654;SDS011;19997;51.274;22.506;2022-12-07T13:45:27;13.30;;;7.03;;
33654;SDS011;19997;51.274;22.506;2022-12-07T13:48:14;13.05;;;6.85;;
33654;SDS011;19997;51.274;22.506;2022-12-07T13:50:47;17.33;;;7.40;;
33654;SDS011;19997;51.274;22.506;2022-12-07T13:53:20;20.20;;;8.18;;
33654;SDS011;19997;51.274;22.506;2022-12-07T13:55:48;16.17;;;7.50;;
33654;SDS011;19997;51.274;22.506;2022-12-07T13:58:16;20.35;;;9.23;;
33654;SDS011;19997;51.274;22.506;2022-12-07T14:00:44;21.92;;;9.38;;
33654;SDS011;19997;51.274;22.506;2022-12-07T14:03:25;19.80;;;9.05;;
33654;SDS011;19997;51.274;22.506;2022-12-07T14:06:05;21.73;;;9.55;;
33654;SDS011;19997;51.274;22.506;2022-12-07T14:08:39;22.85;;;8.85;;
33654;SDS011;19997;51.274;22.506;2022-12-07T14:11:06;19.95;;;10.25;;
33654;SDS011;19997;51.274;22.506;2022-12-07T14:13:39;26.90;;;11.23;;
33654;SDS011;19997;51.274;22.506;2022-12-07T14:16:18;20.52;;;9.68;;
33654;SDS011;19997;51.274;22.506;2022-12-07T14:18:50;15.07;;;7.97;;
33654;SDS011;19997;51.274;22.506;2022-12-07T14:21:18;19.10;;;8.15;;
33654;SDS011;19997;51.274;22.506;2022-12-07T14:24:02;19.95;;;9.18;;
33654;SDS011;19997;51.274;22.506;2022-12-07T14:26:42;18.30;;;8.52;;
33654;SDS011;19997;51.274;22.506;2022-12-07T14:29:22;20.27;;;8.45;;
33654;SDS011;19997;51.274;22.506;2022-12-07T14:31:58;17.33;;;8.73;;
33654;SDS011;19997;51.274;22.506;2022-12-07T14:34:52;26.98;;;12.35;;
33654;SDS011;19997;51.274;22.506;2022-12-07T14:37:23;32.53;;;13.00;;
33654;SDS011;19997;51.274;22.506;2022-12-07T14:39:50;28.58;;;13.95;;
33654;SDS011;19997;51.274;22.506;2022-12-07T14:42:18;34.60;;;15.23;;
33654;SDS011;19997;51.274;22.506;2022-12-07T14:44:47;25.45;;;11.70;;
33654;SDS011;19997;51.274;22.506;2022-12-07T14:47:14;29.20;;;13.55;;
33654;SDS011;19997;51.274;22.506;2022-12-07T14:49:41;34.80;;;15.10;;
33654;SDS011;19997;51.274;22.506;2022-12-07T14:52:11;26.98;;;12.20;;
33654;SDS011;19997;51.274;22.506;2022-12-07T14:54:41;36.30;;;14.18;;
33654;SDS011;19997;51.274;22.506;2022-12-07T14:57:09;32.90;;;13.95;;
33654;SDS011;19997;51.274;22.506;2022-12-07T14:59:36;33.25;;;13.60;;
33654;SDS011;19997;51.274;22.506;2022-12-07T15:02:05;35.00;;;12.52;;
33654;SDS011;19997;51.274;22.506;2022-12-07T15:04:33;23.55;;;10.50;;
33654;SDS011;19997;51.274;22.506;2022-12-07T15:07:01;26.85;;;10.95;;
33654;SDS011;19997;51.274;22.506;2022-12-07T15:11:57;22.13;;;9.15;;
33654;SDS011;19997;51.274;22.506;2022-12-07T15:14:24;29.52;;;11.98;;
33654;SDS011;19997;51.274;22.506;2022-12-07T15:16:51;31.02;;;12.48;;
33654;SDS011;19997;51.274;22.506;2022-12-07T15:19:21;32.88;;;13.60;;
33654;SDS011;19997;51.274;22.506;2022-12-07T15:21:51;30.85;;;11.63;;
33654;SDS011;19997;51.274;22.506;2022-12-07T15:24:18;27.45;;;12.00;;
33654;SDS011;19997;51.274;22.506;2022-12-07T15:26:46;26.70;;;10.95;;